sensor_id;sensor_type;location;lat;lon;timestamp;pressure;altitude;pressure_sealevel;temperature;humidity
46392;BME280;32098;49.448;7.904;2023-02-28T00:00:22;99027.34;;;-3.56;59.70
46392;BME280;32098;49.448;7.904;2023-02-28T00:02:48;99028.56;;;-3.72;60.22
46392;BME280;32098;49.448;7.904;2023-02-28T00:05:17;99025.50;;;-3.66;60.77
46392;BME280;32098;49.448;7.904;2023-02-28T00:07:44;99019.78;;;-3.71;60.23
46392;BME280;32098;49.448;7.904;2023-02-28T00:10:13;99004.97;;;-3.81;60.69
46392;BME280;32098;49.448;7.904;2023-02-28T00:12:41;99021.56;;;-3.82;61.18
46392;BME280;32098;49.448;7.904;2023-02-28T00:15:09;99029.28;;;-3.81;60.88
46392;BME280;32098;49.448;7.904;2023-02-28T00:17:37;99025.13;;;-3.72;60.95
46392;BME280;32098;49.448;7.904;2023-02-28T00:20:05;99024.31;;;-3.84;61.02
46392;BME280;32098;49.448;7.904;2023-02-28T00:22:47;99023.59;;;-3.97;61.80
46392;BME280;32098;49.448;7.904;2023-02-28T00:25:20;99022.03;;;-3.99;62.22
46392;BME280;32098;49.448;7.904;2023-02-28T00:27:47;99016.00;;;-4.00;62.02
46392;BME280;32098;49.448;7.904;2023-02-28T00:30:22;99018.72;;;-4.01;62.47
46392;BME280;32098;49.448;7.904;2023-02-28T00:32:49;99016.25;;;-4.03;62.55
46392;BME280;32098;49.448;7.904;2023-02-28T00:35:16;99020.63;;;-4.03;62.52
46392;BME280;32098;49.448;7.904;2023-02-28T00:37:43;99024.78;;;-3.90;62.73
46392;BME280;32098;49.448;7.904;2023-02-28T00:40:10;99029.28;;;-3.92;62.29
46392;BME280;32098;49.448;7.904;2023-02-28T00:42:38;99023.81;;;-4.00;62.82
46392;BME280;32098;49.448;7.904;2023-02-28T00:45:07;99033.56;;;-4.13;62.89
46392;BME280;32098;49.448;7.904;2023-02-28T00:47:36;99035.69;;;-4.07;63.46
46392;BME280;32098;49.448;7.904;2023-02-28T00:50:03;99030.69;;;-4.10;63.28
46392;BME280;32098;49.448;7.904;2023-02-28T00:52:30;99025.25;;;-4.18;64.39
46392;BME280;32098;49.448;7.904;2023-02-28T00:54:58;99021.91;;;-4.20;63.79
46392;BME280;32098;49.448;7.904;2023-02-28T00:57:24;99027.97;;;-4.19;64.27
46392;BME280;32098;49.448;7.904;2023-02-28T00:59:51;99026.66;;;-4.14;64.25
46392;BME280;32098;49.448;7.904;2023-02-28T01:02:17;99022.38;;;-4.15;64.30
46392;BME280;32098;49.448;7.904;2023-02-28T01:04:46;99024.66;;;-4.21;64.68
46392;BME280;32098;49.448;7.904;2023-02-28T01:07:12;99022.16;;;-4.23;64.37
46392;BME280;32098;49.448;7.904;2023-02-28T01:09:41;99013.97;;;-4.30;64.90
46392;BME280;32098;49.448;7.904;2023-02-28T01:12:08;99022.63;;;-4.29;65.02
46392;BME280;32098;49.448;7.904;2023-02-28T01:14:35;99014.31;;;-4.34;64.83
46392;BME280;32098;49.448;7.904;2023-02-28T01:17:02;99022.16;;;-4.23;65.11
46392;BME280;32098;49.448;7.904;2023-02-28T01:19:30;99021.06;;;-4.32;65.62
46392;BME280;32098;49.448;7.904;2023-02-28T01:21:56;99021.78;;;-4.30;64.93
46392;BME280;32098;49.448;7.904;2023-02-28T01:24:23;99020.72;;;-4.27;65.66
46392;BME280;32098;49.448;7.904;2023-02-28T01:26:49;99021.06;;;-4.32;65.36
46392;BME280;32098;49.448;7.904;2023-02-28T01:29:16;99030.44;;;-4.29;65.51
46392;BME280;32098;49.448;7.904;2023-02-28T01:31:42;99022.16;;;-4.23;65.18
46392;BME280;32098;49.448;7.904;2023-02-28T01:34:09;99028.53;;;-4.27;65.51
46392;BME280;32098;49.448;7.904;2023-02-28T01:36:35;99006.47;;;-4.45;66.26
46392;BME280;32098;49.448;7.904;2023-02-28T01:39:02;99022.59;;;-4.40;66.43
46392;BME280;32098;49.448;7.904;2023-02-28T01:41:31;99028.63;;;-4.51;66.46
46392;BME280;32098;49.448;7.904;2023-02-28T01:44:03;99019.50;;;-4.45;66.81
46392;BME280;32098;49.448;7.904;2023-02-28T01:46:33;99012.16;;;-4.40;66.26
46392;BME280;32098;49.448;7.904;2023-02-28T01:49:13;99013.13;;;-4.41;66.42
46392;BME280;32098;49.448;7.904;2023-02-28T01:51:54;99017.63;;;-4.43;66.30
46392;BME280;32098;49.448;7.904;2023-02-28T01:54:28;99016.78;;;-4.33;66.30
46392;BME280;32098;49.448;7.904;2023-02-28T01:56:59;99006.72;;;-4.37;66.62
46392;BME280;32098;49.448;7.904;2023-02-28T01:59:38;99003.63;;;-4.53;67.11
46392;BME280;32098;49.448;7.904;2023-02-28T02:02:16;98999.38;;;-4.32;66.01
46392;BME280;32098;49.448;7.904;2023-02-28T02:04:55;99004.94;;;-4.48;67.07
46392;BME280;32098;49.448;7.904;2023-02-28T02:07:24;99033.38;;;-4.45;67.02
46392;BME280;32098;49.448;7.904;2023-02-28T02:10:14;99012.88;;;-4.49;67.51
46392;BME280;32098;49.448;7.904;2023-02-28T02:15:43;99007.78;;;-4.51;67.64
46392;BME280;32098;49.448;7.904;2023-02-28T02:21:44;99001.47;;;-4.59;68.01
46392;BME280;32098;49.448;7.904;2023-02-28T02:24:52;98991.88;;;-4.48;67.73
46392;BME280;32098;49.448;7.904;2023-02-28T02:36:13;98998.16;;;-4.50;67.85
46392;BME280;32098;49.448;7.904;2023-02-28T02:39:02;98996.53;;;-4.51;68.11
46392;BME280;32098;49.448;7.904;2023-02-28T02:41:50;99004.78;;;-4.57;68.21
46392;BME280;32098;49.448;7.904;2023-02-28T02:44:43;98993.22;;;-4.53;68.40
46392;BME280;32098;49.448;7.904;2023-02-28T02:47:18;98998.88;;;-4.59;68.23
46392;BME280;32098;49.448;7.904;2023-02-28T02:49:50;99011.19;;;-4.61;68.45
46392;BME280;32098;49.448;7.904;2023-02-28T02:52:21;99003.59;;;-4.75;69.45
46392;BME280;32098;49.448;7.904;2023-02-28T02:54:50;98999.94;;;-4.73;69.19
46392;BME280;32098;49.448;7.904;2023-02-28T02:57:35;99005.44;;;-4.77;69.52
46392;BME280;32098;49.448;7.904;2023-02-28T03:00:05;98998.22;;;-4.85;69.47
46392;BME280;32098;49.448;7.904;2023-02-28T03:02:36;98997.06;;;-4.81;69.48
46392;BME280;32098;49.448;7.904;2023-02-28T03:05:26;99003.09;;;-4.80;69.84
46392;BME280;32098;49.448;7.904;2023-02-28T03:07:54;99002.78;;;-5.00;69.76
46392;BME280;32098;49.448;7.904;2023-02-28T03:10:28;99005.78;;;-4.93;69.76
46392;BME280;32098;49.448;7.904;2023-02-28T03:13:07;99001.38;;;-4.93;69.96
46392;BME280;32098;49.448;7.904;2023-02-28T03:15:54;99014.44;;;-4.81;69.81
46392;BME280;32098;49.448;7.904;2023-02-28T03:25:01;98989.97;;;-5.03;70.37
46392;BME280;32098;49.448;7.904;2023-02-28T03:30:24;98985.91;;;-5.18;70.94
46392;BME280;32098;49.448;7.904;2023-02-28T03:32:59;98967.03;;;-5.32;71.55
46392;BME280;32098;49.448;7.904;2023-02-28T03:35:33;98992.22;;;-5.09;71.04
46392;BME280;32098;49.448;7.904;2023-02-28T03:38:13;98991.38;;;-5.10;70.77
46392;BME280;32098;49.448;7.904;2023-02-28T03:40:50;98993.13;;;-5.10;71.26
46392;BME280;32098;49.448;7.904;2023-02-28T03:43:22;98990.59;;;-5.23;71.26
46392;BME280;32098;49.448;7.904;2023-02-28T03:45:51;98989.25;;;-5.16;71.44
46392;BME280;32098;49.448;7.904;2023-02-28T03:51:19;98984.03;;;-5.16;71.22
46392;BME280;32098;49.448;7.904;2023-02-28T03:53:52;98992.56;;;-5.14;71.80
46392;BME280;32098;49.448;7.904;2023-02-28T03:56:29;98987.56;;;-5.17;71.65
46392;BME280;32098;49.448;7.904;2023-02-28T03:59:02;98989.00;;;-5.13;71.53
46392;BME280;32098;49.448;7.904;2023-02-28T04:01:35;98994.88;;;-5.22;71.81
46392;BME280;32098;49.448;7.904;2023-02-28T04:04:04;98991.78;;;-5.27;72.56
46392;BME280;32098;49.448;7.904;2023-02-28T04:06:33;98990.84;;;-5.26;72.21
46392;BME280;32098;49.448;7.904;2023-02-28T04:09:00;98988.25;;;-5.26;72.54
46392;BME280;32098;49.448;7.904;2023-02-28T04:11:34;98995.31;;;-5.28;72.07
46392;BME280;32098;49.448;7.904;2023-02-28T04:14:02;98987.00;;;-5.33;72.45
46392;BME280;32098;49.448;7.904;2023-02-28T04:16:30;98984.16;;;-5.41;72.62
46392;BME280;32098;49.448;7.904;2023-02-28T04:19:04;98987.47;;;-5.39;72.73
46392;BME280;32098;49.448;7.904;2023-02-28T04:21:34;98993.75;;;-5.30;72.69
46392;BME280;32098;49.448;7.904;2023-02-28T04:24:02;98987.00;;;-5.33;72.88
46392;BME280;32098;49.448;7.904;2023-02-28T04:26:33;98987.69;;;-5.18;72.39
46392;BME280;32098;49.448;7.904;2023-02-28T04:29:01;98989.88;;;-5.25;72.88
46392;BME280;32098;49.448;7.904;2023-02-28T04:31:27;98993.88;;;-5.32;72.82
46392;BME280;32098;49.448;7.904;2023-02-28T04:33:55;99000.31;;;-5.25;72.79
46392;BME280;32098;49.448;7.904;2023-02-28T04:36:21;98982.97;;;-5.37;72.70
46392;BME280;32098;49.448;7.904;2023-02-28T04:38:49;99003.13;;;-5.28;72.58
46392;BME280;32098;49.448;7.904;2023-02-28T04:41:16;98984.16;;;-5.41;72.77
46392;BME280;32098;49.448;7.904;2023-02-28T04:43:43;98990.16;;;-5.40;73.46
46392;BME280;32098;49.448;7.904;2023-02-28T04:46:10;98986.00;;;-5.43;73.62
46392;BME280;32098;49.448;7.904;2023-02-28T04:48:38;98986.19;;;-5.33;73.66
46392;BME280;32098;49.448;7.904;2023-02-28T04:51:10;98986.13;;;-5.44;73.70
46392;BME280;32098;49.448;7.904;2023-02-28T04:53:38;98990.00;;;-5.50;74.06
46392;BME280;32098;49.448;7.904;2023-02-28T04:56:06;98988.09;;;-5.48;73.88
46392;BME280;32098;49.448;7.904;2023-02-28T04:58:34;98999.78;;;-5.41;73.75
46392;BME280;32098;49.448;7.904;2023-02-28T05:01:37;99005.34;;;-5.58;74.18
46392;BME280;32098;49.448;7.904;2023-02-28T05:04:04;98960.59;;;-5.87;74.72
46392;BME280;32098;49.448;7.904;2023-02-28T05:06:32;99004.59;;;-5.60;75.19
46392;BME280;32098;49.448;7.904;2023-02-28T05:08:59;99007.66;;;-5.66;75.18
46392;BME280;32098;49.448;7.904;2023-02-28T05:11:29;98994.34;;;-5.74;75.57
46392;BME280;32098;49.448;7.904;2023-02-28T05:14:04;99008.16;;;-5.61;75.25
46392;BME280;32098;49.448;7.904;2023-02-28T05:16:31;99016.31;;;-5.66;75.13
46392;BME280;32098;49.448;7.904;2023-02-28T05:18:58;99003.59;;;-5.70;75.80
46392;BME280;32098;49.448;7.904;2023-02-28T05:21:29;99004.72;;;-5.62;74.95
46392;BME280;32098;49.448;7.904;2023-02-28T05:23:59;99003.88;;;-5.62;75.11
46392;BME280;32098;49.448;7.904;2023-02-28T05:26:26;99002.25;;;-5.63;75.55
46392;BME280;32098;49.448;7.904;2023-02-28T05:28:54;99012.59;;;-5.50;74.48
46392;BME280;32098;49.448;7.904;2023-02-28T05:31:21;99004.59;;;-5.60;74.68
46392;BME280;32098;49.448;7.904;2023-02-28T05:33:47;99014.81;;;-5.57;75.20
46392;BME280;32098;49.448;7.904;2023-02-28T05:36:14;99015.13;;;-5.62;75.16
46392;BME280;32098;49.448;7.904;2023-02-28T05:38:41;99011.91;;;-5.65;75.33
46392;BME280;32098;49.448;7.904;2023-02-28T05:41:09;99016.19;;;-5.64;75.63
46392;BME280;32098;49.448;7.904;2023-02-28T05:43:36;99014.00;;;-5.70;75.33
46392;BME280;32098;49.448;7.904;2023-02-28T05:46:08;99006.88;;;-5.55;75.07
46392;BME280;32098;49.448;7.904;2023-02-28T05:48:36;99014.28;;;-5.62;75.22
46392;BME280;32098;49.448;7.904;2023-02-28T05:51:03;99015.88;;;-5.72;75.78
46392;BME280;32098;49.448;7.904;2023-02-28T05:53:31;99025.22;;;-5.57;75.78
46392;BME280;32098;49.448;7.904;2023-02-28T05:55:58;99019.72;;;-5.65;76.27
46392;BME280;32098;49.448;7.904;2023-02-28T05:58:25;99022.31;;;-5.65;76.41
46392;BME280;32098;49.448;7.904;2023-02-28T06:00:55;99017.84;;;-5.63;76.46
46392;BME280;32098;49.448;7.904;2023-02-28T06:03:22;99017.78;;;-5.74;76.44
46392;BME280;32098;49.448;7.904;2023-02-28T06:05:48;99015.16;;;-5.74;76.57
46392;BME280;32098;49.448;7.904;2023-02-28T06:08:15;99026.94;;;-5.81;77.12
46392;BME280;32098;49.448;7.904;2023-02-28T06:10:41;99001.03;;;-5.83;76.86
46392;BME280;32098;49.448;7.904;2023-02-28T06:13:08;99029.72;;;-5.72;76.97
46392;BME280;32098;49.448;7.904;2023-02-28T06:15:34;99030.91;;;-5.76;77.10
46392;BME280;32098;49.448;7.904;2023-02-28T06:18:01;99038.78;;;-5.77;77.28
46392;BME280;32098;49.448;7.904;2023-02-28T06:20:28;99030.91;;;-5.76;77.01
46392;BME280;32098;49.448;7.904;2023-02-28T06:22:56;99041.28;;;-5.76;77.44
46392;BME280;32098;49.448;7.904;2023-02-28T06:25:27;99032.34;;;-5.84;76.91
46392;BME280;32098;49.448;7.904;2023-02-28T06:27:54;99043.25;;;-5.67;77.04
46392;BME280;32098;49.448;7.904;2023-02-28T06:30:21;99031.50;;;-5.72;77.09
46392;BME280;32098;49.448;7.904;2023-02-28T06:32:53;99031.59;;;-5.74;76.92
46392;BME280;32098;49.448;7.904;2023-02-28T06:35:20;99031.91;;;-5.66;77.00
46392;BME280;32098;49.448;7.904;2023-02-28T06:37:48;98981.41;;;-5.99;76.70
46392;BME280;32098;49.448;7.904;2023-02-28T06:40:14;99038.91;;;-5.79;76.93
46392;BME280;32098;49.448;7.904;2023-02-28T06:42:41;99048.63;;;-5.57;77.02
46392;BME280;32098;49.448;7.904;2023-02-28T06:45:10;99040.09;;;-5.59;76.63
46392;BME280;32098;49.448;7.904;2023-02-28T06:47:38;99045.81;;;-5.54;76.16
46392;BME280;32098;49.448;7.904;2023-02-28T06:50:06;99047.69;;;-5.56;76.11
46392;BME280;32098;49.448;7.904;2023-02-28T06:52:34;99049.00;;;-5.50;76.08
46392;BME280;32098;49.448;7.904;2023-02-28T06:55:05;99043.00;;;-5.51;76.23
46392;BME280;32098;49.448;7.904;2023-02-28T06:57:33;99058.66;;;-5.40;76.10
46392;BME280;32098;49.448;7.904;2023-02-28T07:00:04;99062.66;;;-5.47;76.04
46392;BME280;32098;49.448;7.904;2023-02-28T07:02:35;99074.63;;;-5.44;75.71
46392;BME280;32098;49.448;7.904;2023-02-28T07:05:01;99057.22;;;-5.44;75.66
46392;BME280;32098;49.448;7.904;2023-02-28T07:07:28;99063.88;;;-5.40;75.43
46392;BME280;32098;49.448;7.904;2023-02-28T07:09:54;99045.72;;;-5.29;75.20
46392;BME280;32098;49.448;7.904;2023-02-28T07:12:21;99069.00;;;-5.15;75.05
46392;BME280;32098;49.448;7.904;2023-02-28T07:14:48;99078.19;;;-5.22;74.65
46392;BME280;32098;49.448;7.904;2023-02-28T07:17:14;99077.31;;;-5.10;74.60
46392;BME280;32098;49.448;7.904;2023-02-28T07:19:42;99063.34;;;-5.09;74.50
46392;BME280;32098;49.448;7.904;2023-02-28T07:22:08;99070.03;;;-5.17;73.95
46392;BME280;32098;49.448;7.904;2023-02-28T07:24:34;99080.88;;;-5.11;74.30
46392;BME280;32098;49.448;7.904;2023-02-28T07:27:01;99077.75;;;-5.16;73.93
46392;BME280;32098;49.448;7.904;2023-02-28T07:29:28;99053.78;;;-5.08;73.66
46392;BME280;32098;49.448;7.904;2023-02-28T07:31:55;99061.69;;;-5.10;73.68
46392;BME280;32098;49.448;7.904;2023-02-28T07:34:22;99077.16;;;-4.96;72.86
46392;BME280;32098;49.448;7.904;2023-02-28T07:36:49;99070.78;;;-4.91;73.25
46392;BME280;32098;49.448;7.904;2023-02-28T07:39:21;99075.56;;;-4.85;73.33
46392;BME280;32098;49.448;7.904;2023-02-28T07:41:47;99069.72;;;-4.89;72.97
46392;BME280;32098;49.448;7.904;2023-02-28T07:44:14;99078.66;;;-4.80;72.86
46392;BME280;32098;49.448;7.904;2023-02-28T07:46:40;99064.88;;;-4.82;72.13
46392;BME280;32098;49.448;7.904;2023-02-28T07:49:07;99065.00;;;-4.84;72.34
46392;BME280;32098;49.448;7.904;2023-02-28T07:51:33;99070.84;;;-4.80;72.50
46392;BME280;32098;49.448;7.904;2023-02-28T07:54:00;99086.50;;;-4.69;71.57
46392;BME280;32098;49.448;7.904;2023-02-28T07:56:27;99069.66;;;-4.76;71.57
46392;BME280;32098;49.448;7.904;2023-02-28T07:58:54;99027.91;;;-4.87;71.59
46392;BME280;32098;49.448;7.904;2023-02-28T08:01:21;99067.47;;;-4.59;71.41
46392;BME280;32098;49.448;7.904;2023-02-28T08:03:48;99089.03;;;-4.57;70.94
46392;BME280;32098;49.448;7.904;2023-02-28T08:06:20;99079.22;;;-4.53;71.40
46392;BME280;32098;49.448;7.904;2023-02-28T08:08:48;99065.78;;;-4.60;70.49
46392;BME280;32098;49.448;7.904;2023-02-28T08:11:15;99066.09;;;-4.41;70.28
46392;BME280;32098;49.448;7.904;2023-02-28T08:13:43;99073.00;;;-4.28;70.32
46392;BME280;32098;49.448;7.904;2023-02-28T08:16:11;99080.34;;;-4.22;70.14
46392;BME280;32098;49.448;7.904;2023-02-28T08:18:41;99085.66;;;-4.35;70.43
46392;BME280;32098;49.448;7.904;2023-02-28T08:21:09;99074.78;;;-4.29;70.45
46392;BME280;32098;49.448;7.904;2023-02-28T08:23:36;99072.19;;;-4.18;69.89
46392;BME280;32098;49.448;7.904;2023-02-28T08:26:03;99090.81;;;-4.11;68.42
46392;BME280;32098;49.448;7.904;2023-02-28T08:28:30;99078.56;;;-4.33;68.49
46392;BME280;32098;49.448;7.904;2023-02-28T08:30:57;99069.22;;;-4.13;68.27
46392;BME280;32098;49.448;7.904;2023-02-28T08:33:25;99071.03;;;-4.03;68.67
46392;BME280;32098;49.448;7.904;2023-02-28T08:35:55;99093.78;;;-3.83;68.27
46392;BME280;32098;49.448;7.904;2023-02-28T08:38:22;99093.78;;;-4.05;68.39
46392;BME280;32098;49.448;7.904;2023-02-28T08:40:49;99088.34;;;-3.91;68.83
46392;BME280;32098;49.448;7.904;2023-02-28T08:43:15;99079.44;;;-3.77;67.83
46392;BME280;32098;49.448;7.904;2023-02-28T08:45:42;99069.94;;;-3.34;66.28
46392;BME280;32098;49.448;7.904;2023-02-28T08:48:09;99072.41;;;-3.21;66.50
46392;BME280;32098;49.448;7.904;2023-02-28T08:50:36;99079.22;;;-3.41;65.88
46392;BME280;32098;49.448;7.904;2023-02-28T08:53:02;99078.50;;;-3.76;65.66
46392;BME280;32098;49.448;7.904;2023-02-28T08:55:30;99093.56;;;-3.80;66.38
46392;BME280;32098;49.448;7.904;2023-02-28T08:57:56;99085.84;;;-3.70;66.61
46392;BME280;32098;49.448;7.904;2023-02-28T09:00:23;99086.09;;;-3.62;66.56
46392;BME280;32098;49.448;7.904;2023-02-28T09:02:50;99074.91;;;-3.31;65.95
46392;BME280;32098;49.448;7.904;2023-02-28T09:05:18;99085.31;;;-3.20;65.08
46392;BME280;32098;49.448;7.904;2023-02-28T09:07:44;99082.84;;;-3.32;65.55
46392;BME280;32098;49.448;7.904;2023-02-28T09:10:11;99082.56;;;-2.96;65.26
46392;BME280;32098;49.448;7.904;2023-02-28T09:12:37;99083.22;;;-2.83;64.09
46392;BME280;32098;49.448;7.904;2023-02-28T09:15:04;99083.41;;;-2.75;63.86
46392;BME280;32098;49.448;7.904;2023-02-28T09:17:32;99075.28;;;-2.61;63.38
46392;BME280;32098;49.448;7.904;2023-02-28T09:19:58;99080.84;;;-2.54;62.52
46392;BME280;32098;49.448;7.904;2023-02-28T09:22:24;99083.06;;;-2.50;62.51
46392;BME280;32098;49.448;7.904;2023-02-28T09:24:51;99070.91;;;-2.40;62.29
46392;BME280;32098;49.448;7.904;2023-02-28T09:27:18;99072.53;;;-2.59;61.61
46392;BME280;32098;49.448;7.904;2023-02-28T09:29:44;99079.97;;;-2.44;63.21
46392;BME280;32098;49.448;7.904;2023-02-28T09:32:11;99071.63;;;-2.38;61.90
46392;BME280;32098;49.448;7.904;2023-02-28T09:34:37;99073.13;;;-2.14;61.23
46392;BME280;32098;49.448;7.904;2023-02-28T09:37:04;99084.75;;;-2.49;62.16
46392;BME280;32098;49.448;7.904;2023-02-28T09:39:31;99080.38;;;-2.27;61.73
46392;BME280;32098;49.448;7.904;2023-02-28T09:41:58;99094.44;;;-1.98;60.91
46392;BME280;32098;49.448;7.904;2023-02-28T09:44:26;99088.13;;;-1.96;60.15
46392;BME280;32098;49.448;7.904;2023-02-28T09:46:59;99076.09;;;-1.78;60.49
46392;BME280;32098;49.448;7.904;2023-02-28T09:49:37;99058.50;;;-1.96;60.25
46392;BME280;32098;49.448;7.904;2023-02-28T09:52:29;99068.91;;;-1.85;60.21
46392;BME280;32098;49.448;7.904;2023-02-28T09:55:04;99077.91;;;-1.99;59.64
46392;BME280;32098;49.448;7.904;2023-02-28T09:57:42;99075.25;;;-2.08;59.40
46392;BME280;32098;49.448;7.904;2023-02-28T10:00:22;99101.75;;;-2.22;60.50
46392;BME280;32098;49.448;7.904;2023-02-28T10:06:11;99078.25;;;-2.13;59.68
46392;BME280;32098;49.448;7.904;2023-02-28T10:11:25;99078.53;;;-1.86;59.04
46392;BME280;32098;49.448;7.904;2023-02-28T10:16:33;99069.16;;;-1.88;58.59
46392;BME280;32098;49.448;7.904;2023-02-28T10:19:17;99039.22;;;-2.25;58.15
46392;BME280;32098;49.448;7.904;2023-02-28T10:22:01;99090.19;;;-2.20;58.41
46392;BME280;32098;49.448;7.904;2023-02-28T10:24:42;99072.44;;;-2.16;58.26
46392;BME280;32098;49.448;7.904;2023-02-28T10:27:28;99059.78;;;-2.11;58.71
46392;BME280;32098;49.448;7.904;2023-02-28T10:29:58;99047.25;;;-2.17;58.52
46392;BME280;32098;49.448;7.904;2023-02-28T10:32:35;99062.41;;;-2.11;57.22
46392;BME280;32098;49.448;7.904;2023-02-28T10:37:45;99055.84;;;-1.36;57.64
46392;BME280;32098;49.448;7.904;2023-02-28T10:45:31;99054.16;;;-1.46;56.55
46392;BME280;32098;49.448;7.904;2023-02-28T10:50:45;99047.00;;;-1.44;55.16
46392;BME280;32098;49.448;7.904;2023-02-28T10:53:25;99046.47;;;-1.29;55.20
46392;BME280;32098;49.448;7.904;2023-02-28T11:03:57;99037.59;;;-0.97;52.78
46392;BME280;32098;49.448;7.904;2023-02-28T11:06:30;99030.56;;;-0.87;52.51
46392;BME280;32098;49.448;7.904;2023-02-28T11:09:02;99036.47;;;-0.57;51.78
46392;BME280;32098;49.448;7.904;2023-02-28T11:11:42;99051.78;;;-0.90;51.68
46392;BME280;32098;49.448;7.904;2023-02-28T11:14:26;99045.16;;;-0.66;51.95
46392;BME280;32098;49.448;7.904;2023-02-28T11:16:54;99039.09;;;-0.66;51.41
46392;BME280;32098;49.448;7.904;2023-02-28T11:19:35;99047.38;;;-0.80;50.53
46392;BME280;32098;49.448;7.904;2023-02-28T11:22:05;99060.50;;;-0.90;51.16
46392;BME280;32098;49.448;7.904;2023-02-28T11:24:35;99051.78;;;-0.81;50.80
46392;BME280;32098;49.448;7.904;2023-02-28T11:27:03;99039.38;;;-0.69;50.87
46392;BME280;32098;49.448;7.904;2023-02-28T11:29:32;99052.78;;;-0.72;50.48
46392;BME280;32098;49.448;7.904;2023-02-28T11:32:18;99041.41;;;-0.92;51.45
46392;BME280;32098;49.448;7.904;2023-02-28T11:34:47;99038.25;;;-0.67;50.79
46392;BME280;32098;49.448;7.904;2023-02-28T11:37:27;99047.22;;;-0.31;50.34
46392;BME280;32098;49.448;7.904;2023-02-28T11:39:54;99029.38;;;-0.18;49.52
46392;BME280;32098;49.448;7.904;2023-02-28T11:48:20;99023.63;;;0.43;48.93
46392;BME280;32098;49.448;7.904;2023-02-28T12:04:36;99027.84;;;-0.20;49.16
46392;BME280;32098;49.448;7.904;2023-02-28T12:07:18;99005.66;;;-0.35;49.23
46392;BME280;32098;49.448;7.904;2023-02-28T12:10:22;99033.41;;;-0.33;48.72
46392;BME280;32098;49.448;7.904;2023-02-28T12:19:04;99018.38;;;0.43;47.06
46392;BME280;32098;49.448;7.904;2023-02-28T12:21:44;99027.75;;;0.08;47.62
46392;BME280;32098;49.448;7.904;2023-02-28T12:26:58;99025.16;;;-0.01;48.48
46392;BME280;32098;49.448;7.904;2023-02-28T12:29:34;99015.97;;;0.22;47.37
46392;BME280;32098;49.448;7.904;2023-02-28T12:32:17;99028.78;;;-0.12;47.98
46392;BME280;32098;49.448;7.904;2023-02-28T12:34:55;99027.91;;;0.07;48.24
46392;BME280;32098;49.448;7.904;2023-02-28T12:37:34;99033.31;;;-0.04;48.23
46392;BME280;32098;49.448;7.904;2023-02-28T12:40:10;99027.31;;;-0.24;49.17
46392;BME280;32098;49.448;7.904;2023-02-28T12:42:47;99027.50;;;-0.45;49.16
46392;BME280;32098;49.448;7.904;2023-02-28T12:45:21;99030.50;;;-0.40;49.14
46392;BME280;32098;49.448;7.904;2023-02-28T12:48:10;99029.13;;;-0.34;49.40
46392;BME280;32098;49.448;7.904;2023-02-28T12:50:40;99012.63;;;-0.17;49.52
46392;BME280;32098;49.448;7.904;2023-02-28T12:53:18;99006.81;;;0.26;48.47
46392;BME280;32098;49.448;7.904;2023-02-28T12:56:13;99005.28;;;-0.04;48.61
46392;BME280;32098;49.448;7.904;2023-02-28T12:58:52;99022.41;;;0.00;49.65
46392;BME280;32098;49.448;7.904;2023-02-28T13:04:14;99001.72;;;-0.12;49.04
46392;BME280;32098;49.448;7.904;2023-02-28T13:09:26;98999.63;;;-0.09;48.54
46392;BME280;32098;49.448;7.904;2023-02-28T13:11:56;99019.28;;;0.24;48.90
46392;BME280;32098;49.448;7.904;2023-02-28T13:14:30;99015.25;;;0.30;48.40
46392;BME280;32098;49.448;7.904;2023-02-28T13:28:01;99014.94;;;0.05;48.73
46392;BME280;32098;49.448;7.904;2023-02-28T13:36:08;99011.03;;;0.09;48.67
46392;BME280;32098;49.448;7.904;2023-02-28T13:38:46;99014.28;;;0.31;48.56
46392;BME280;32098;49.448;7.904;2023-02-28T13:49:29;99025.84;;;0.01;48.51
46392;BME280;32098;49.448;7.904;2023-02-28T13:52:14;99039.84;;;-0.08;49.44
46392;BME280;32098;49.448;7.904;2023-02-28T14:06:17;99013.41;;;0.40;48.08
46392;BME280;32098;49.448;7.904;2023-02-28T14:08:59;99010.56;;;0.51;47.43
46392;BME280;32098;49.448;7.904;2023-02-28T14:11:45;99005.41;;;0.59;48.39
46392;BME280;32098;49.448;7.904;2023-02-28T14:17:15;99003.06;;;0.56;47.72
46392;BME280;32098;49.448;7.904;2023-02-28T14:19:45;99003.78;;;0.58;47.81
46392;BME280;32098;49.448;7.904;2023-02-28T14:22:38;99007.41;;;0.47;47.29
46392;BME280;32098;49.448;7.904;2023-02-28T14:25:29;99003.25;;;0.72;48.30
46392;BME280;32098;49.448;7.904;2023-02-28T14:31:23;98998.50;;;1.20;46.30
46392;BME280;32098;49.448;7.904;2023-02-28T14:34:13;99002.22;;;0.82;47.13
46392;BME280;32098;49.448;7.904;2023-02-28T14:36:43;99008.69;;;0.88;47.51
46392;BME280;32098;49.448;7.904;2023-02-28T14:39:16;99002.06;;;0.84;47.54
46392;BME280;32098;49.448;7.904;2023-02-28T14:41:45;99010.19;;;0.73;47.80
46392;BME280;32098;49.448;7.904;2023-02-28T14:44:21;99004.94;;;0.73;47.84
46392;BME280;32098;49.448;7.904;2023-02-28T14:46:51;98996.72;;;0.76;48.60
46392;BME280;32098;49.448;7.904;2023-02-28T14:49:20;99000.72;;;0.80;47.75
46392;BME280;32098;49.448;7.904;2023-02-28T14:51:49;99005.81;;;0.81;48.32
46392;BME280;32098;49.448;7.904;2023-02-28T14:54:28;98994.09;;;0.76;47.61
46392;BME280;32098;49.448;7.904;2023-02-28T14:56:55;98993.47;;;0.64;48.44
46392;BME280;32098;49.448;7.904;2023-02-28T14:59:33;98993.94;;;0.60;48.64
46392;BME280;32098;49.448;7.904;2023-02-28T15:02:21;98999.75;;;0.54;48.15
46392;BME280;32098;49.448;7.904;2023-02-28T15:04:56;98987.34;;;0.46;48.30
46392;BME280;32098;49.448;7.904;2023-02-28T15:07:23;98996.94;;;0.65;47.86
46392;BME280;32098;49.448;7.904;2023-02-28T15:10:08;98992.84;;;0.80;47.60
46392;BME280;32098;49.448;7.904;2023-02-28T15:12:35;98992.47;;;0.75;47.63
46392;BME280;32098;49.448;7.904;2023-02-28T15:15:03;98997.63;;;0.84;47.33
46392;BME280;32098;49.448;7.904;2023-02-28T15:17:30;98992.06;;;0.70;47.99
46392;BME280;32098;49.448;7.904;2023-02-28T15:19:57;98993.72;;;0.71;48.32
46392;BME280;32098;49.448;7.904;2023-02-28T15:22:33;98954.53;;;0.33;47.97
46392;BME280;32098;49.448;7.904;2023-02-28T15:25:04;98987.28;;;1.01;47.66
46392;BME280;32098;49.448;7.904;2023-02-28T15:27:33;98997.88;;;0.91;47.10
46392;BME280;32098;49.448;7.904;2023-02-28T15:30:07;98988.72;;;0.95;47.87
46392;BME280;32098;49.448;7.904;2023-02-28T15:32:37;99006.38;;;1.03;48.05
46392;BME280;32098;49.448;7.904;2023-02-28T15:35:28;99005.91;;;1.07;47.50